Time;durP1;ratioP1;P1;durP2;ratioP2;P2;SDS_P1;SDS_P2;PMS_P1;PMS_P2;Temp;Humidity;BMP_temperature;BMP_pressure;BME280_temperature;BME280_humidity;BME280_pressure;Samples;Min_cycle;Max_cycle;Signal;HPM_P1;HPM_P2
2022/07/08 00:02:01;;;;;;;15.48;9.90;;;;;;;19.75;96.90;94709.34;4972302;28;20723;-73
2022/07/08 00:07:53;;;;;;;15.43;10.18;;;;;;;19.77;97.42;94689.53;4970668;28;20244;-73
2022/07/08 00:10:41;;;;;;;13.95;9.18;;;;;;;19.74;97.17;94681.38;4972062;28;20287;-73
2022/07/08 00:13:30;;;;;;;13.10;9.23;;;;;;;19.79;96.76;94684.78;4971904;28;20351;-73
2022/07/08 00:19:42;;;;;;;16.98;10.13;;;;;;;19.78;95.77;94680.56;4969182;28;20632;-73
2022/07/08 00:22:36;;;;;;;13.30;9.60;;;;;;;19.82;95.46;94675.53;4971949;28;20240;-73
2022/07/08 00:25:21;;;;;;;15.20;10.13;;;;;;;19.83;95.85;94682.38;4935828;29;20209;-74
2022/07/08 00:28:11;;;;;;;14.77;9.77;;;;;;;19.83;95.13;94674.47;4937364;29;20233;-73
2022/07/08 00:30:55;;;;;;;12.70;9.68;;;;;;;19.78;95.71;94671.88;4937411;29;20202;-73
2022/07/08 00:33:45;;;;;;;15.10;10.05;;;;;;;19.90;96.17;94685.50;4937629;29;20264;-73
2022/07/08 00:36:37;;;;;;;14.15;9.73;;;;;;;19.99;96.15;94683.06;4937367;29;20300;-73
2022/07/08 00:39:26;;;;;;;15.23;9.38;;;;;;;19.95;94.67;94682.81;4938136;29;20309;-72
2022/07/08 00:42:14;;;;;;;14.73;9.88;;;;;;;19.75;95.86;94682.97;4937308;29;20206;-72
2022/07/08 00:45:01;;;;;;;15.57;9.05;;;;;;;19.53;96.99;94672.03;4936933;29;20298;-73
2022/07/08 00:48:03;;;;;;;14.93;8.50;;;;;;;19.53;97.58;94677.31;4937057;29;20237;-73
2022/07/08 00:50:57;;;;;;;10.80;7.63;;;;;;;19.48;97.65;94683.38;4936138;29;20225;-72
2022/07/08 00:56:54;;;;;;;9.32;7.50;;;;;;;19.58;97.84;94685.97;4936933;29;20205;-73
2022/07/08 00:59:43;;;;;;;12.15;8.10;;;;;;;19.64;97.89;94687.53;4937212;29;20632;-73
2022/07/08 01:02:30;;;;;;;11.50;8.48;;;;;;;19.71;98.37;94676.66;4936947;29;20312;-73
2022/07/08 01:05:26;;;;;;;15.30;8.93;;;;;;;19.77;98.68;94678.19;4937237;29;20326;-73
2022/07/08 01:08:17;;;;;;;11.25;8.48;;;;;;;19.84;98.29;94686.59;4936913;29;20266;-73
2022/07/08 01:11:00;;;;;;;14.88;8.00;;;;;;;19.91;97.76;94673.91;4937439;29;20710;-73
2022/07/08 01:13:46;;;;;;;11.90;8.35;;;;;;;19.95;97.46;94672.25;4936209;29;20597;-73
2022/07/08 01:16:36;;;;;;;12.80;9.05;;;;;;;19.92;97.49;94677.28;4936934;29;20209;-73
2022/07/08 01:19:18;;;;;;;12.70;8.70;;;;;;;19.92;97.72;94683.38;4937114;29;20257;-73
2022/07/08 01:22:17;;;;;;;12.32;8.85;;;;;;;19.95;97.35;94677.53;4936948;29;20202;-73
2022/07/08 01:25:04;;;;;;;10.95;7.82;;;;;;;19.94;97.14;94678.59;4973386;28;20327;-73
2022/07/08 01:27:49;;;;;;;12.50;7.63;;;;;;;19.95;96.79;94674.13;4975488;28;20296;-73
2022/07/08 01:30:32;;;;;;;12.43;7.40;;;;;;;19.93;96.69;94673.59;4972892;28;20231;-72
2022/07/08 01:36:11;;;;;;;12.98;7.43;;;;;;;19.95;96.82;94666.19;4967384;28;20225;-72
2022/07/08 01:39:12;;;;;;;10.02;7.75;;;;;;;19.93;96.44;94666.47;4974781;28;20323;-72
2022/07/08 01:42:05;;;;;;;11.25;7.30;;;;;;;19.98;95.71;94677.00;4974577;28;20209;-73
2022/07/08 01:44:50;;;;;;;11.82;7.28;;;;;;;19.98;95.54;94671.72;4975390;28;20200;-73
2022/07/08 01:47:41;;;;;;;9.40;7.05;;;;;;;19.94;95.62;94669.91;4974770;28;20215;-73
2022/07/08 01:50:27;;;;;;;11.43;7.22;;;;;;;19.89;96.01;94673.38;4974994;28;20213;-73
2022/07/08 01:53:13;;;;;;;9.45;7.20;;;;;;;19.91;95.57;94675.75;4974942;28;20208;-73
2022/07/08 01:56:07;;;;;;;10.07;7.03;;;;;;;19.85;95.90;94679.47;4974845;28;20295;-73
2022/07/08 01:58:53;;;;;;;14.90;7.20;;;;;;;19.82;96.03;94680.81;4974841;28;20209;-73
2022/07/08 02:01:39;;;;;;;10.95;7.05;;;;;;;19.78;96.32;94677.13;4974739;28;20288;-73
2022/07/08 02:04:26;;;;;;;11.20;7.75;;;;;;;19.70;96.49;94681.16;4974505;28;20663;-73
2022/07/08 02:07:15;;;;;;;8.60;7.28;;;;;;;19.65;95.71;94669.84;4974584;28;20287;-72
2022/07/08 02:10:07;;;;;;;9.80;6.93;;;;;;;19.52;95.58;94681.78;4974450;28;20232;-73
2022/07/08 02:13:01;;;;;;;10.65;7.15;;;;;;;19.39;95.90;94684.25;4974578;28;20286;-72
2022/07/08 02:15:58;;;;;;;8.02;6.72;;;;;;;19.30;95.95;94688.47;4974332;28;20212;-73
2022/07/08 02:18:52;;;;;;;9.10;6.65;;;;;;;19.30;95.57;94691.91;4974521;28;20200;-72
2022/07/08 02:24:37;;;;;;;7.43;6.57;;;;;;;18.96;96.34;94683.84;4973239;28;20598;-73
2022/07/08 02:30:26;;;;;;;13.02;7.38;;;;;;;18.93;95.92;94692.28;4972310;28;20288;-73
2022/07/08 02:33:12;;;;;;;7.32;6.63;;;;;;;18.96;95.44;94694.38;4973971;28;20244;-72
2022/07/08 02:35:59;;;;;;;10.65;7.35;;;;;;;18.92;95.76;94693.34;4973822;28;20201;-73
2022/07/08 02:38:46;;;;;;;8.63;7.00;;;;;;;18.90;96.48;94698.13;4973999;28;20690;-72
2022/07/08 02:41:28;;;;;;;8.73;6.97;;;;;;;18.86;96.71;94701.53;4974209;28;20216;-73
2022/07/08 02:44:17;;;;;;;9.65;6.90;;;;;;;18.81;97.70;94698.91;4973915;28;20200;-73
2022/07/08 02:47:20;;;;;;;8.10;7.20;;;;;;;18.78;98.26;94704.72;4973801;28;20208;-73
2022/07/08 02:49:51;;;;;;;10.60;7.30;;;;;;;18.77;97.84;94700.50;4973705;28;20212;-73
2022/07/08 02:52:39;;;;;;;10.80;7.78;;;;;;;18.75;98.10;94706.03;4978336;28;20201;-73
2022/07/08 02:55:11;;;;;;;10.30;8.00;;;;;;;18.75;98.41;94702.63;4973030;28;20263;-73
2022/07/08 02:57:42;;;;;;;10.02;7.82;;;;;;;18.72;98.04;94701.31;4973535;28;20215;-73
2022/07/08 03:00:39;;;;;;;10.27;7.50;;;;;;;18.70;97.85;94701.56;4973399;28;20228;-73
2022/07/08 03:03:32;;;;;;;10.02;7.57;;;;;;;18.67;98.13;94701.34;4973098;28;20200;-73
2022/07/08 03:06:28;;;;;;;10.23;8.20;;;;;;;18.69;98.25;94696.56;4973168;28;20201;-72
2022/07/08 03:09:17;;;;;;;16.88;8.15;;;;;;;18.67;98.45;94693.44;4973194;28;20664;-73
2022/07/08 03:12:06;;;;;;;9.38;8.02;;;;;;;18.64;98.52;94693.97;4973112;28;20205;-73
2022/07/08 03:14:41;;;;;;;16.10;7.88;;;;;;;18.56;98.87;94697.13;4973374;28;20291;-73
2022/07/08 03:17:33;;;;;;;10.93;8.48;;;;;;;18.52;99.39;94685.56;4970796;28;20267;-73
2022/07/08 03:20:29;;;;;;;9.20;7.40;;;;;;;18.52;100.00;94693.44;4973082;28;20228;-72
2022/07/08 03:23:09;;;;;;;11.55;8.77;;;;;;;18.48;100.00;94684.47;4972767;28;20268;-73
2022/07/08 03:26:09;;;;;;;9.50;7.93;;;;;;;18.54;100.00;94694.75;4972783;28;20284;-72
2022/07/08 03:29:00;;;;;;;14.85;8.82;;;;;;;18.63;100.00;94689.75;4973042;28;20205;-73
2022/07/08 03:31:44;;;;;;;12.90;9.23;;;;;;;18.65;100.00;94696.31;4970997;28;20211;-73
2022/07/08 03:34:30;;;;;;;21.98;9.60;;;;;;;18.65;100.00;94698.16;4972521;28;20204;-73
2022/07/08 03:37:33;;;;;;;13.35;8.70;;;;;;;18.74;100.00;94703.66;4972325;28;20216;-73
2022/07/08 03:43:08;;;;;;;14.90;9.75;;;;;;;18.77;100.00;94713.66;4950372;28;20291;-73
2022/07/08 03:45:54;;;;;;;20.98;9.65;;;;;;;18.86;99.34;94712.88;4972282;28;20287;-71
2022/07/08 03:48:42;;;;;;;12.35;8.77;;;;;;;18.90;97.89;94713.13;4972496;28;20243;-74
2022/07/08 03:51:23;;;;;;;12.50;7.65;;;;;;;18.94;96.22;94709.66;4972094;28;20208;-72
2022/07/08 03:57:07;;;;;;;11.02;7.18;;;;;;;18.95;93.91;94708.63;4971990;28;20201;-72
2022/07/08 04:00:02;;;;;;;7.45;6.57;;;;;;;18.97;93.69;94721.50;4972345;28;20228;-73
2022/07/08 04:02:53;;;;;;;10.70;7.00;;;;;;;19.00;93.79;94713.06;4971844;28;20211;-73
2022/07/08 04:05:38;;;;;;;12.13;7.28;;;;;;;19.05;93.63;94710.41;4971970;28;20292;-73
2022/07/08 04:08:23;;;;;;;12.65;7.90;;;;;;;19.03;93.59;94707.28;4972020;28;20211;-73
2022/07/08 04:11:03;;;;;;;10.18;7.50;;;;;;;19.02;94.74;94709.13;4972186;28;20207;-73
2022/07/08 04:13:47;;;;;;;13.70;8.25;;;;;;;19.05;94.23;94715.69;4969951;28;20232;-73
2022/07/08 04:16:33;;;;;;;12.35;7.72;;;;;;;19.09;94.14;94714.09;4971814;28;20694;-73
2022/07/08 04:19:19;;;;;;;14.27;8.23;;;;;;;19.12;93.69;94718.84;4971874;28;20204;-73
2022/07/08 04:22:08;;;;;;;12.43;7.88;;;;;;;19.13;93.04;94715.91;4972022;28;20320;-73
2022/07/08 04:24:56;;;;;;;15.27;8.13;;;;;;;19.02;93.41;94717.00;4971295;28;20711;-73
2022/07/08 04:27:52;;;;;;;9.55;8.07;;;;;;;18.71;95.46;94718.16;4971794;28;20239;-73
2022/07/08 04:30:40;;;;;;;9.30;7.68;;;;;;;18.63;96.58;94718.69;4971373;28;20750;-75
2022/07/08 04:33:21;;;;;;;11.35;8.05;;;;;;;18.70;97.04;94716.56;4971492;28;20215;-76
2022/07/08 04:36:07;;;;;;;11.07;7.75;;;;;;;18.78;96.99;94716.06;4971822;28;20213;-76
2022/07/08 04:38:53;;;;;;;13.15;8.80;;;;;;;18.86;97.00;94719.97;4971378;28;20303;-75
2022/07/08 04:41:36;;;;;;;8.93;8.02;;;;;;;18.84;97.95;94712.34;4971950;28;20223;-74
2022/07/08 04:44:30;;;;;;;13.18;9.00;;;;;;;18.93;98.25;94717.84;4971486;28;20219;-75
2022/07/08 04:47:24;;;;;;;13.35;8.93;;;;;;;18.94;98.85;94719.41;4971013;28;20640;-75
2022/07/08 04:50:08;;;;;;;14.27;9.77;;;;;;;18.95;99.95;94727.06;4971681;28;20201;-74
2022/07/08 04:52:42;;;;;;;14.77;9.25;;;;;;;18.98;100.00;94715.19;4971378;28;20668;-74
2022/07/08 04:58:25;;;;;;;11.88;9.13;;;;;;;19.01;100.00;94720.72;4971598;28;20244;-75
2022/07/08 05:01:13;;;;;;;11.90;8.63;;;;;;;19.00;100.00;94715.72;4971296;28;20212;-75
2022/07/08 05:03:56;;;;;;;14.30;8.98;;;;;;;19.09;99.18;94709.63;4971265;28;20205;-75
2022/07/08 05:06:48;;;;;;;10.80;8.77;;;;;;;19.11;98.70;94712.78;4971763;28;20205;-75
2022/07/08 05:09:38;;;;;;;12.82;8.65;;;;;;;19.18;98.15;94715.94;4968751;28;20292;-75
2022/07/08 05:12:22;;;;;;;13.50;9.10;;;;;;;19.09;99.07;94709.63;4973765;28;20240;-75
2022/07/08 05:15:06;;;;;;;11.75;9.50;;;;;;;19.14;99.61;94716.72;4975036;28;20240;-75
2022/07/08 05:17:52;;;;;;;13.02;8.88;;;;;;;19.17;98.68;94718.81;4974860;28;20196;-75
2022/07/08 05:20:38;;;;;;;11.68;8.98;;;;;;;19.12;98.19;94716.22;4975381;28;20331;-75
2022/07/08 05:23:18;;;;;;;12.05;8.50;;;;;;;19.00;99.16;94727.03;4973087;28;20228;-75
2022/07/08 05:26:17;;;;;;;11.88;8.30;;;;;;;19.04;100.00;94722.03;4975006;28;20196;-76
2022/07/08 05:29:00;;;;;;;12.38;9.23;;;;;;;19.10;99.68;94716.50;4974305;28;20215;-75
2022/07/08 05:31:46;;;;;;;13.15;9.38;;;;;;;19.18;98.96;94723.84;4974781;28;20283;-74
2022/07/08 05:34:38;;;;;;;11.90;8.77;;;;;;;19.25;98.36;94720.88;4974535;28;20374;-77
2022/07/08 05:37:26;;;;;;;9.43;8.05;;;;;;;19.31;98.44;94719.03;4974125;28;20212;-73
2022/07/08 05:40:34;;;;;;;11.77;9.07;;;;;;;19.31;98.03;94713.78;4978929;28;20223;-74
2022/07/08 05:43:21;;;;;;;14.95;8.32;;;;;;;19.37;97.24;94702.91;4975681;28;20200;-73
2022/07/08 05:46:16;;;;;;;12.98;8.45;;;;;;;19.42;97.30;94708.22;4974582;28;20201;-73
2022/07/08 05:49:09;;;;;;;12.25;8.63;;;;;;;19.51;96.10;94709.19;4974646;28;20200;-74
2022/07/08 05:55:07;;;;;;;11.73;8.68;;;;;;;19.46;95.25;94706.59;4971816;28;20220;-74
2022/07/08 05:57:51;;;;;;;11.85;8.60;;;;;;;19.51;95.66;94711.06;4974222;28;20751;-74
2022/07/08 06:00:38;;;;;;;14.88;8.38;;;;;;;19.55;95.05;94704.97;4973934;28;20275;-73
2022/07/08 06:03:26;;;;;;;10.68;8.25;;;;;;;19.60;96.09;94715.47;4974252;28;20699;-73
2022/07/08 06:06:18;;;;;;;14.02;8.02;;;;;;;19.71;96.90;94714.34;4974240;28;20684;-74
2022/07/08 06:09:11;;;;;;;9.82;8.27;;;;;;;19.80;96.69;94711.94;4974329;28;20204;-73
2022/07/08 06:14:58;;;;;;;9.40;8.30;;;;;;;19.98;95.55;94707.88;4973738;28;20598;-73
2022/07/08 06:17:52;;;;;;;11.35;7.97;;;;;;;19.92;96.21;94707.13;4974011;28;20632;-73
2022/07/08 06:20:43;;;;;;;12.65;8.82;;;;;;;19.91;97.77;94712.69;4973645;28;20224;-73
2022/07/08 06:23:34;;;;;;;11.32;8.68;;;;;;;20.05;97.78;94706.50;4972601;28;20240;-73
2022/07/08 06:26:36;;;;;;;12.82;8.95;;;;;;;20.21;96.82;94702.69;4973648;28;20200;-72
2022/07/08 06:29:28;;;;;;;10.55;8.95;;;;;;;20.29;96.80;94698.66;4973986;28;20216;-73
2022/07/08 06:32:21;;;;;;;10.13;9.02;;;;;;;20.37;95.88;94692.81;4969002;28;20220;-73
2022/07/08 06:38:03;;;;;;;18.85;9.45;;;;;;;20.57;94.76;94691.84;4973725;28;20271;-73
2022/07/08 06:43:53;;;;;;;13.23;9.02;;;;;;;20.77;93.94;94684.50;4972671;28;20209;-74
2022/07/08 06:49:42;;;;;;;13.05;9.13;;;;;;;20.88;92.22;94674.59;4968648;28;20216;-73
2022/07/08 06:52:36;;;;;;;14.90;8.45;;;;;;;20.97;91.10;94678.22;4973620;28;20287;-73
2022/07/08 06:55:22;;;;;;;10.32;8.52;;;;;;;21.08;90.25;94669.13;4973383;28;20209;-72
2022/07/08 06:58:24;;;;;;;10.82;9.45;;;;;;;21.13;89.63;94665.63;4973404;28;20222;-74
2022/07/08 07:01:23;;;;;;;12.65;8.77;;;;;;;21.19;89.26;94659.19;4973256;28;20263;-74
2022/07/08 07:07:15;;;;;;;14.40;9.05;;;;;;;21.36;87.79;94655.00;4968280;28;20645;-73
2022/07/08 07:10:02;;;;;;;14.75;9.43;;;;;;;21.61;86.33;94663.69;4967246;28;20608;-73
2022/07/08 07:13:00;;;;;;;10.10;8.30;;;;;;;22.00;83.59;94645.66;4967496;28;20212;-73
2022/07/08 07:15:51;;;;;;;10.77;8.13;;;;;;;22.17;82.55;94648.53;4973271;28;20237;-73
2022/07/08 07:18:58;;;;;;;14.05;8.15;;;;;;;22.26;81.80;94643.38;4972698;28;20205;-73
2022/07/08 07:21:42;;;;;;;11.32;7.82;;;;;;;22.30;80.89;94642.50;4972889;28;20862;-73
2022/07/08 07:24:21;;;;;;;12.15;7.10;;;;;;;22.36;80.91;94651.16;4972391;28;20294;-73
2022/07/08 07:27:18;;;;;;;12.43;7.05;;;;;;;22.39;80.30;94646.06;4972709;28;20205;-72
2022/07/08 07:30:07;;;;;;;9.07;6.40;;;;;;;22.35;79.00;94647.72;4971962;28;20215;-73
2022/07/08 07:36:06;;;;;;;9.45;6.15;;;;;;;22.52;77.77;94652.44;4970666;28;20244;-74
2022/07/08 07:38:57;;;;;;;6.47;5.78;;;;;;;22.55;77.12;94650.00;4972414;28;20287;-74
2022/07/08 07:42:03;;;;;;;12.23;5.88;;;;;;;22.58;76.78;94654.72;4972306;28;20299;-72
2022/07/08 07:45:00;;;;;;;6.68;5.28;;;;;;;22.72;74.68;94653.97;4972367;28;20212;-72
2022/07/08 07:47:42;;;;;;;7.35;4.90;;;;;;;22.78;73.64;94658.09;4971729;28;20695;-73
2022/07/08 07:50:31;;;;;;;7.72;5.50;;;;;;;22.87;73.65;94659.78;4972213;28;20227;-72
2022/07/08 07:53:29;;;;;;;7.32;5.55;;;;;;;22.94;73.65;94665.47;4972255;28;20264;-73
2022/07/08 07:56:15;;;;;;;7.93;5.20;;;;;;;22.98;73.96;94660.38;4972296;28;20240;-73
2022/07/08 07:59:02;;;;;;;5.60;4.63;;;;;;;23.06;72.48;94662.31;4972426;28;20764;-73
2022/07/08 08:01:51;;;;;;;7.60;4.30;;;;;;;23.15;70.46;94660.56;4972315;28;20308;-73
2022/07/08 08:04:38;;;;;;;7.53;5.57;;;;;;;23.22;69.65;94657.50;4972422;28;20209;-73
2022/07/08 08:07:27;;;;;;;7.53;4.63;;;;;;;23.22;70.26;94657.50;4972294;28;20283;-73
2022/07/08 08:10:13;;;;;;;5.78;4.80;;;;;;;23.27;71.06;94660.84;4970700;28;20291;-73
2022/07/08 08:13:09;;;;;;;4.15;3.75;;;;;;;23.38;68.45;94658.75;4972212;28;20659;-73
2022/07/08 08:15:59;;;;;;;3.92;3.53;;;;;;;23.75;64.36;94661.19;4967482;28;20201;-73
2022/07/08 08:18:52;;;;;;;5.68;3.70;;;;;;;23.96;62.50;94661.47;4961755;28;20202;-73
2022/07/08 08:21:37;;;;;;;4.60;4.10;;;;;;;24.09;63.09;94652.69;4965089;28;20229;-73
2022/07/08 08:24:17;;;;;;;3.30;3.00;;;;;;;23.99;58.96;94655.56;4971619;28;20250;-73
2022/07/08 08:27:16;;;;;;;3.63;3.33;;;;;;;23.94;60.21;94658.34;4967067;28;20205;-73
2022/07/08 08:30:09;;;;;;;5.45;3.55;;;;;;;23.95;60.26;94651.97;4971814;28;20679;-73
2022/07/08 08:33:13;;;;;;;6.22;3.85;;;;;;;24.03;60.86;94646.72;4971870;28;20662;-73
2022/07/08 08:35:57;;;;;;;4.15;3.63;;;;;;;24.04;60.42;94639.53;4971204;28;20571;-73
2022/07/08 08:38:50;;;;;;;6.32;5.30;;;;;;;24.07;64.35;94641.59;4971676;28;20213;-73
2022/07/08 08:42:00;;;;;;;6.15;4.60;;;;;;;24.23;64.36;94643.59;4971890;28;20311;-73
2022/07/08 08:45:02;;;;;;;6.60;4.50;;;;;;;24.42;63.87;94630.09;4972118;28;20240;-73
2022/07/08 08:48:04;;;;;;;3.45;3.15;;;;;;;24.47;59.68;94631.84;4976133;28;20636;-73
2022/07/08 08:51:03;;;;;;;5.25;4.03;;;;;;;24.57;59.87;94627.03;4975325;28;20208;-74
2022/07/08 08:54:00;;;;;;;7.30;4.20;;;;;;;24.74;61.24;94623.66;4966259;28;20609;-72
2022/07/08 08:56:48;;;;;;;4.70;3.88;;;;;;;24.82;60.59;94620.28;4974962;28;20200;-73
2022/07/08 08:59:46;;;;;;;4.30;3.90;;;;;;;24.95;60.88;94614.09;4975403;28;20212;-73
2022/07/08 09:02:35;;;;;;;5.47;3.78;;;;;;;25.32;58.00;94612.75;4975320;28;20232;-74
2022/07/08 09:05:25;;;;;;;6.97;3.70;;;;;;;25.56;58.06;94613.13;4975619;28;20244;-72
2022/07/08 09:08:31;;;;;;;6.93;3.47;;;;;;;25.67;56.44;94619.72;4975284;28;20642;-72
2022/07/08 09:11:17;;;;;;;4.65;3.60;;;;;;;25.77;55.29;94610.63;4975118;28;20204;-72
2022/07/08 09:14:31;;;;;;;5.57;3.42;;;;;;;25.90;55.50;94613.13;4975239;28;20204;-72
2022/07/08 09:17:18;;;;;;;4.22;3.83;;;;;;;25.92;55.69;94616.25;4975465;28;20204;-73
2022/07/08 09:20:13;;;;;;;6.82;3.90;;;;;;;25.88;55.32;94611.88;4974939;28;20208;-72
2022/07/08 09:23:09;;;;;;;3.65;3.30;;;;;;;25.94;56.00;94594.66;4974936;28;20251;-73
2022/07/08 09:26:01;;;;;;;6.03;3.40;;;;;;;26.02;56.03;94599.16;4936688;29;20632;-73
2022/07/08 09:28:51;;;;;;;4.13;3.72;;;;;;;26.07;56.71;94598.22;4935435;29;20273;-73
2022/07/08 09:31:50;;;;;;;4.00;3.58;;;;;;;26.05;55.71;94595.88;4935656;29;20202;-73
2022/07/08 09:34:44;;;;;;;3.80;3.50;;;;;;;26.10;55.93;94602.91;4936523;29;20242;-73
2022/07/08 09:37:36;;;;;;;4.90;3.42;;;;;;;26.04;56.89;94590.84;4936679;29;20701;-73
2022/07/08 09:40:50;;;;;;;3.85;3.40;;;;;;;26.06;55.93;94586.00;4936614;29;20213;-73
2022/07/08 09:43:53;;;;;;;5.78;3.53;;;;;;;26.03;55.52;94579.44;4936542;29;20590;-73
2022/07/08 09:46:54;;;;;;;5.63;3.33;;;;;;;26.08;56.70;94579.25;4935966;29;20217;-74
2022/07/08 09:49:55;;;;;;;9.88;3.35;;;;;;;26.23;54.79;94573.47;4936305;29;20233;-73
2022/07/08 09:52:54;;;;;;;;;;;;;;;;;;;;;
2022/07/08 09:55:48;;;;;;;4.70;3.75;;;;;;;26.41;55.68;94577.63;4936518;29;20202;-74
2022/07/08 09:58:45;;;;;;;3.65;3.35;;;;;;;26.51;55.34;94579.16;4935559;29;20269;-73
2022/07/08 10:01:38;;;;;;;6.50;4.00;;;;;;;26.67;55.45;94576.72;4936062;29;20245;-73
2022/07/08 10:04:24;;;;;;;11.07;3.65;;;;;;;26.94;53.45;94571.78;4936482;28;20206;-72
2022/07/08 10:10:16;;;;;;;9.23;4.18;;;;;;;27.16;51.49;94569.94;4935635;29;20233;-73
2022/07/08 10:13:13;;;;;;;3.88;3.47;;;;;;;27.13;50.39;94565.25;4936121;29;20285;-73
2022/07/08 10:15:56;;;;;;;4.20;3.28;;;;;;;27.08;50.74;94550.19;4935863;29;20285;-73
2022/07/08 10:18:47;;;;;;;6.05;3.22;;;;;;;27.07;51.55;94540.59;4935796;29;20679;-73
2022/07/08 10:21:35;;;;;;;3.30;3.00;;;;;;;27.15;50.80;94542.47;4931999;29;20230;-73
2022/07/08 10:24:22;;;;;;;3.45;3.10;;;;;;;27.12;50.72;94539.66;4958086;28;20696;-73
2022/07/08 10:27:19;;;;;;;10.05;3.38;;;;;;;27.29;50.71;94536.84;4974054;28;20660;-73
2022/07/08 10:30:21;;;;;;;4.35;3.20;;;;;;;27.52;50.12;94524.78;4973999;28;20201;-72
2022/07/08 10:33:17;;;;;;;4.00;3.58;;;;;;;27.71;49.25;94529.63;4974073;28;20668;-73
2022/07/08 10:36:25;;;;;;;7.15;4.00;;;;;;;27.55;49.65;94524.91;4973951;28;20205;-73
2022/07/08 10:39:11;;;;;;;6.53;3.47;;;;;;;27.36;51.48;94526.47;4973458;28;20201;-73
2022/07/08 10:45:22;;;;;;;6.30;3.67;;;;;;;27.54;49.95;94535.91;4974238;28;20275;-73
2022/07/08 10:48:26;;;;;;;5.22;3.65;;;;;;;27.44;49.55;94549.66;4973709;28;20209;-73
2022/07/08 10:51:08;;;;;;;6.05;3.75;;;;;;;27.41;49.06;94544.94;4971887;28;20293;-73
2022/07/08 10:54:04;;;;;;;7.55;3.58;;;;;;;27.39;46.25;94549.81;4973681;28;20201;-73
2022/07/08 10:57:20;;;;;;;3.30;3.00;;;;;;;27.36;48.20;94548.56;4973563;28;20205;-73
2022/07/08 11:00:19;;;;;;;4.55;2.90;;;;;;;27.33;47.78;94537.78;4973441;28;20208;-73
2022/07/08 11:03:07;;;;;;;5.78;3.00;;;;;;;27.19;48.72;94532.69;4972991;28;20233;-72
2022/07/08 11:05:55;;;;;;;4.13;2.72;;;;;;;27.12;50.19;94528.97;4973204;28;20232;-72
2022/07/08 11:09:03;;;;;;;7.38;3.10;;;;;;;27.05;49.50;94518.81;4970995;28;20648;-73
2022/07/08 11:11:53;;;;;;;3.95;2.67;;;;;;;27.16;49.32;94517.31;4966971;28;20208;-73
2022/07/08 11:15:12;;;;;;;6.30;3.30;;;;;;;27.18;50.51;94511.66;4972964;28;20219;-72
2022/07/08 11:17:52;;;;;;;3.28;2.97;;;;;;;27.05;49.80;94494.78;4973126;28;20204;-73
2022/07/08 11:20:41;;;;;;;3.92;2.67;;;;;;;27.06;49.51;94512.38;4973358;28;20204;-73
2022/07/08 11:23:42;;;;;;;5.60;3.15;;;;;;;27.15;49.81;94509.66;4972925;28;20269;-73
2022/07/08 11:26:35;;;;;;;4.68;3.10;;;;;;;27.20;49.72;94504.09;4972888;28;20292;-72
2022/07/08 11:29:43;;;;;;;5.78;2.95;;;;;;;27.29;49.45;94497.59;4973076;28;20227;-73
2022/07/08 11:32:40;;;;;;;6.28;3.08;;;;;;;27.33;48.35;94498.50;4973007;28;20726;-73
2022/07/08 11:35:33;;;;;;;3.45;2.83;;;;;;;27.80;48.55;94493.69;4969512;28;20201;-72
2022/07/08 11:38:17;;;;;;;3.42;3.13;;;;;;;28.47;47.64;94490.63;4973030;28;20287;-74
2022/07/08 11:41:03;;;;;;;5.78;3.20;;;;;;;28.73;46.89;94501.00;4972698;28;20590;-72
2022/07/08 11:43:52;;;;;;;8.15;3.05;;;;;;;28.59;46.46;94487.94;4972796;28;20196;-74
2022/07/08 11:46:42;;;;;;;4.28;3.60;;;;;;;28.41;47.07;94496.50;4972774;28;20200;-74
2022/07/08 11:49:28;;;;;;;4.70;2.95;;;;;;;28.21;47.82;94494.72;4972427;28;20213;-73
2022/07/08 11:52:26;;;;;;;2.88;2.67;;;;;;;28.00;47.49;94487.53;4972153;28;20638;-73
2022/07/08 11:58:25;;;;;;;5.85;3.08;;;;;;;27.60;48.75;94483.84;4972070;28;20216;-73
2022/07/08 12:01:21;;;;;;;4.28;2.95;;;;;;;27.41;48.54;94488.88;4972456;28;20208;-72
2022/07/08 12:04:22;;;;;;;4.50;3.22;;;;;;;26.71;50.22;94493.09;4972542;28;20279;-72
2022/07/08 12:07:18;;;;;;;7.82;3.30;;;;;;;26.54;50.89;94487.88;4969393;28;20226;-73
2022/07/08 12:10:34;;;;;;;5.25;2.88;;;;;;;26.26;51.20;94476.84;4972478;28;20679;-73
2022/07/08 12:16:16;;;;;;;6.47;3.17;;;;;;;26.14;51.25;94475.94;4971993;28;20735;-73
2022/07/08 12:19:07;;;;;;;4.63;3.10;;;;;;;25.97;52.73;94494.66;4968599;28;20647;-73
2022/07/08 12:22:07;;;;;;;4.60;3.42;;;;;;;25.96;55.63;94491.19;4971875;28;20209;-72
2022/07/08 12:25:04;;;;;;;8.20;3.85;;;;;;;25.93;56.92;94494.50;4971524;28;20731;-73
2022/07/08 12:27:56;;;;;;;5.85;3.78;;;;;;;25.66;60.62;94500.19;4972336;28;20197;-73
2022/07/08 12:30:42;;;;;;;9.32;3.92;;;;;;;25.61;64.45;94500.34;4972360;28;20208;-73
2022/07/08 12:33:37;;;;;;;7.28;3.92;;;;;;;25.32;67.62;94516.94;4972116;28;20239;-73
2022/07/08 12:39:37;;;;;;;5.95;3.55;;;;;;;24.62;69.45;94511.81;4969860;28;20223;-73
2022/07/08 12:42:35;;;;;;;6.15;3.67;;;;;;;24.48;69.09;94519.91;4971864;28;20225;-73
2022/07/08 12:45:27;;;;;;;4.78;3.67;;;;;;;24.14;70.50;94522.44;4966438;28;20218;-73
2022/07/08 12:48:19;;;;;;;6.50;4.05;;;;;;;23.93;69.96;94542.59;4971838;28;20209;-73
2022/07/08 12:51:07;;;;;;;5.82;4.43;;;;;;;23.80;72.46;94554.06;4972067;28;20211;-73
2022/07/08 12:53:59;;;;;;;7.10;4.20;;;;;;;23.63;79.15;94566.16;4972133;28;20201;-73
2022/07/08 12:56:53;;;;;;;5.43;4.30;;;;;;;23.34;79.93;94564.94;4971946;28;20274;-73
2022/07/08 12:59:45;;;;;;;5.65;4.43;;;;;;;23.24;79.43;94567.81;4971890;28;20320;-73
2022/07/08 13:02:43;;;;;;;10.60;4.07;;;;;;;23.12;79.48;94563.81;4972301;28;20239;-73
2022/07/08 13:05:32;;;;;;;7.53;4.32;;;;;;;22.84;79.78;94578.19;4971968;28;20205;-73
2022/07/08 13:08:26;;;;;;;4.95;4.45;;;;;;;22.61;82.00;94577.28;4972025;28;20205;-73
2022/07/08 13:11:05;;;;;;;5.28;4.45;;;;;;;22.47;83.29;94575.72;4971744;28;20213;-73
2022/07/08 13:14:07;;;;;;;6.47;4.60;;;;;;;22.47;82.28;94570.41;4970012;28;20205;-73
2022/07/08 13:16:59;;;;;;;5.53;4.80;;;;;;;22.23;82.57;94578.53;4971862;28;20259;-73
2022/07/08 13:22:47;;;;;;;8.82;5.40;;;;;;;22.07;87.32;94571.94;4971481;28;20264;-73
2022/07/08 13:25:32;;;;;;;8.90;6.30;;;;;;;22.09;93.90;94564.50;4971603;28;20582;-73
2022/07/08 13:28:26;;;;;;;14.48;6.25;;;;;;;22.02;99.75;94570.16;4971750;28;20293;-73
2022/07/08 13:31:19;;;;;;;14.40;7.07;;;;;;;22.01;100.00;94559.88;4971804;28;20240;-73
2022/07/08 13:34:11;;;;;;;12.38;6.80;;;;;;;22.08;100.00;94554.97;4974317;28;20213;-73
2022/07/08 13:37:04;;;;;;;11.40;7.00;;;;;;;21.94;100.00;94520.53;4975281;28;20332;-73
2022/07/08 13:42:58;;;;;;;10.50;7.45;;;;;;;22.01;100.00;94531.53;4972870;28;20224;-73
2022/07/08 13:48:51;;;;;;;8.43;6.40;;;;;;;21.78;97.46;94502.53;4975610;28;20209;-73
2022/07/08 13:51:43;;;;;;;8.48;6.47;;;;;;;21.75;99.75;94492.53;4974836;28;20200;-73
2022/07/08 13:54:37;;;;;;;10.23;6.13;;;;;;;21.81;98.55;94489.53;4974684;28;20196;-73
2022/07/08 13:57:30;;;;;;;9.13;5.90;;;;;;;21.82;94.14;94474.41;4974303;28;20204;-73
2022/07/08 14:06:26;;;;;;;7.50;6.70;;;;;;;22.52;100.00;94478.38;4969787;28;20224;-74
2022/07/08 14:09:09;;;;;;;8.95;7.18;;;;;;;22.74;100.00;94479.56;4974698;28;20210;-74
2022/07/08 14:11:56;;;;;;;8.55;7.18;;;;;;;22.98;100.00;94474.78;4973645;28;20204;-71
2022/07/08 14:14:45;;;;;;;11.15;7.32;;;;;;;23.16;100.00;94485.22;4974773;28;20343;-72
2022/07/08 14:17:34;;;;;;;8.40;7.20;;;;;;;23.31;100.00;94478.78;4974250;28;20201;-73
2022/07/08 14:23:29;;;;;;;7.85;6.43;;;;;;;23.54;96.25;94463.69;4973565;28;20298;-73
2022/07/08 14:26:20;;;;;;;7.80;7.00;;;;;;;23.49;95.54;94464.56;4973320;28;20201;-73
2022/07/08 14:29:05;;;;;;;8.40;6.70;;;;;;;23.48;94.84;94460.38;4973908;28;20197;-73
2022/07/08 14:31:55;;;;;;;7.32;6.55;;;;;;;23.44;90.69;94462.03;4974135;28;20641;-73
2022/07/08 14:34:50;;;;;;;8.10;6.75;;;;;;;23.32;89.22;94468.97;4973942;28;20205;-73
2022/07/08 14:37:33;;;;;;;7.40;6.47;;;;;;;23.22;86.82;94464.69;4972599;28;20761;-72
2022/07/08 14:40:39;;;;;;;7.82;6.32;;;;;;;23.13;92.46;94471.78;4974128;28;20215;-73
2022/07/08 14:46:19;;;;;;;7.35;6.03;;;;;;;22.88;87.66;94481.09;4973222;28;20212;-73